createdAt,value
2023-05-14T00:08:52.710Z,46.09
2023-05-14T00:18:54.049Z,46.21
2023-05-14T00:28:55.309Z,46.26
2023-05-14T00:38:56.593Z,46.29
2023-05-14T00:48:57.824Z,46.08
2023-05-14T00:58:59.065Z,46.00
2023-05-14T01:09:00.282Z,45.86
2023-05-14T01:19:01.611Z,45.96
2023-05-14T01:29:02.870Z,45.78
2023-05-14T01:39:04.096Z,45.91
2023-05-14T01:49:05.379Z,45.83
2023-05-14T01:59:07.746Z,46.26
2023-05-14T02:09:08.990Z,46.08
2023-05-14T02:19:10.301Z,46.35
2023-05-14T02:29:11.619Z,45.72
2023-05-14T02:39:12.902Z,45.97
2023-05-14T02:49:14.168Z,45.70
2023-05-14T02:59:15.383Z,46.38
2023-05-14T03:09:17.066Z,46.20
2023-05-14T03:19:18.354Z,45.89
2023-05-14T03:29:19.638Z,45.94
2023-05-14T03:39:20.898Z,45.46
2023-05-14T03:49:22.136Z,45.45
2023-05-14T03:59:23.382Z,45.58
2023-05-14T04:09:24.620Z,45.48
2023-05-14T04:19:26.293Z,45.36
2023-05-14T04:29:27.539Z,45.57
2023-05-14T04:39:28.795Z,45.46
2023-05-14T04:49:30.060Z,45.60
2023-05-14T04:59:31.321Z,45.52
2023-05-14T05:09:32.580Z,45.53
2023-05-14T05:19:43.211Z,45.33
2023-05-14T05:29:45.246Z,45.35
2023-05-14T05:39:46.476Z,45.77
2023-05-14T05:49:47.710Z,45.86
2023-05-14T05:59:48.958Z,46.29
2023-05-14T06:09:50.252Z,46.80
2023-05-14T06:19:52.791Z,47.17
2023-05-14T06:29:54.060Z,48.16
2023-05-14T06:39:57.676Z,48.07
2023-05-14T06:49:59.140Z,48.17
2023-05-14T07:00:02.828Z,48.33
2023-05-14T07:10:04.648Z,48.58
2023-05-14T07:20:05.898Z,49.32
2023-05-14T07:30:07.155Z,50.14
2023-05-14T07:40:08.463Z,50.64
2023-05-14T07:50:09.825Z,50.57
2023-05-14T08:00:14.881Z,50.48
2023-05-14T08:10:24.077Z,50.85
2023-05-14T08:20:33.140Z,50.83
2023-05-14T08:30:34.691Z,50.92
2023-05-14T08:40:37.482Z,50.94
2023-05-14T08:50:38.733Z,51.12
2023-05-14T09:00:41.449Z,51.18
2023-05-14T09:10:51.964Z,50.87
2023-05-14T09:20:59.407Z,51.25
2023-05-14T09:31:07.427Z,51.36
2023-05-14T09:51:37.943Z,51.56
2023-05-14T10:01:39.284Z,51.32
2023-05-14T10:11:40.588Z,51.64
2023-05-14T10:32:03.908Z,51.47
2023-05-14T10:42:05.169Z,51.09
2023-05-14T10:52:14.201Z,51.47
2023-05-14T11:02:22.464Z,51.16
2023-05-14T11:12:30.410Z,50.84
2023-05-14T11:22:38.482Z,50.57
2023-05-14T11:32:46.476Z,50.60
2023-05-14T11:42:54.473Z,50.46
2023-05-14T11:53:02.471Z,50.51
2023-05-14T12:03:10.475Z,50.24
2023-05-14T12:13:20.987Z,50.07
2023-05-14T12:33:48.992Z,49.80
2023-05-14T12:43:50.237Z,49.44
2023-05-14T12:53:51.489Z,48.81
2023-05-14T13:04:00.484Z,47.75
2023-05-14T13:14:08.547Z,46.90
2023-05-14T13:24:16.459Z,46.65
2023-05-14T13:34:25.502Z,45.41
2023-05-14T13:44:33.571Z,45.43
2023-05-14T13:54:41.468Z,45.51
2023-05-14T14:04:49.557Z,45.83
2023-05-14T14:14:58.463Z,45.87
2023-05-14T14:25:06.434Z,45.82
2023-05-14T14:35:14.467Z,46.22
2023-05-14T14:45:25.897Z,46.06
2023-05-14T14:55:33.435Z,46.34
2023-05-14T15:05:41.507Z,46.09
2023-05-14T15:15:49.482Z,45.94
2023-05-14T15:25:57.512Z,46.13
2023-05-14T15:36:06.278Z,46.02
2023-05-14T15:46:15.116Z,45.41
2023-05-14T15:56:22.481Z,44.54
2023-05-14T16:06:30.486Z,43.93
2023-05-14T16:16:38.575Z,44.28
2023-05-14T16:26:46.480Z,44.28
2023-05-14T16:36:54.523Z,44.40
2023-05-14T16:47:02.504Z,44.61
2023-05-14T16:57:10.522Z,44.31
2023-05-14T17:07:18.491Z,44.86
2023-05-14T17:27:48.614Z,45.73
2023-05-14T17:37:49.894Z,46.56
2023-05-14T17:47:51.601Z,47.13
2023-05-14T18:08:21.914Z,47.87
2023-05-14T18:18:23.550Z,48.01
2023-05-14T18:28:26.651Z,47.91
2023-05-14T18:38:34.511Z,47.87
2023-05-14T18:48:42.535Z,48.02
2023-05-14T18:58:43.818Z,47.93
2023-05-14T19:08:45.072Z,48.05
2023-05-14T19:18:46.360Z,47.97
2023-05-14T19:28:47.597Z,47.72
2023-05-14T19:38:48.915Z,47.65
2023-05-14T19:48:50.141Z,47.40
2023-05-14T19:58:51.343Z,47.67
2023-05-14T20:08:52.598Z,47.06
2023-05-14T20:18:53.965Z,47.09
2023-05-14T20:28:55.252Z,47.09
2023-05-14T20:38:56.513Z,46.88
2023-05-14T20:48:57.766Z,46.97
2023-05-14T20:58:59.066Z,46.88
2023-05-14T21:09:00.373Z,46.64
2023-05-14T21:19:01.669Z,46.63
2023-05-14T21:29:02.990Z,46.56
2023-05-14T21:39:04.244Z,46.14
2023-05-14T21:49:05.522Z,46.54
2023-05-14T21:59:06.801Z,46.52
2023-05-14T22:09:08.058Z,45.99
2023-05-14T22:19:09.381Z,46.04
2023-05-14T22:29:10.627Z,45.93
2023-05-14T22:39:13.474Z,45.99
2023-05-14T22:49:15.012Z,45.87
2023-05-14T22:59:16.273Z,45.89
2023-05-14T23:09:17.558Z,45.93
2023-05-14T23:19:18.933Z,45.84
2023-05-14T23:29:20.266Z,45.75
2023-05-14T23:39:21.518Z,45.53
2023-05-14T23:49:22.793Z,45.59
2023-05-14T23:59:24.057Z,45.37
